Time;durP1;ratioP1;P1;durP2;ratioP2;P2;SDS_P1;SDS_P2;PMS_P1;PMS_P2;Temp;Humidity;BMP_temperature;BMP_pressure;BME280_temperature;BME280_humidity;BME280_pressure;Samples;Min_cycle;Max_cycle;Signal;HPM_P1;HPM_P2
2020/12/07 00:00:21;;;;;;;1.30;1.13;;;1.80;99.90;;;;;;4983476;28;20948;-90
2020/12/07 00:02:47;;;;;;;3.97;3.07;;;1.80;99.90;;;;;;4981947;28;20785;-88
2020/12/07 00:05:14;;;;;;;3.77;2.90;;;1.80;99.90;;;;;;4984864;28;20440;-89
2020/12/07 00:07:41;;;;;;;3.70;1.73;;;1.80;99.90;;;;;;4981207;28;20465;-89
2020/12/07 00:10:08;;;;;;;3.70;3.30;;;1.70;99.90;;;;;;4987969;28;20440;-90
2020/12/07 00:12:35;;;;;;;2.97;2.57;;;1.70;99.90;;;;;;4981701;28;20460;-87
2020/12/07 00:15:03;;;;;;;4.27;3.40;;;1.70;99.90;;;;;;4982742;28;20921;-91
2020/12/07 00:17:30;;;;;;;3.30;2.77;;;1.80;99.90;;;;;;4980902;28;20497;-89
2020/12/07 00:19:56;;;;;;;5.30;2.80;;;1.80;99.90;;;;;;4980731;28;20448;-88
2020/12/07 00:22:23;;;;;;;4.40;2.90;;;1.60;99.90;;;;;;4983812;28;20445;-86
2020/12/07 00:24:51;;;;;;;4.20;2.57;;;1.70;99.90;;;;;;4994405;28;20451;-88
2020/12/07 00:27:21;;;;;;;3.60;2.90;;;1.70;99.90;;;;;;4993321;28;20469;-88
2020/12/07 00:29:48;;;;;;;3.43;2.60;;;1.70;99.90;;;;;;4984129;28;20511;-89
2020/12/07 00:32:16;;;;;;;3.40;3.07;;;;;;;;;;4984553;28;20443;-90
2020/12/07 00:34:52;;;;;;;3.30;2.67;;;1.60;99.90;;;;;;4975915;28;20453;-90
2020/12/07 00:37:18;;;;;;;4.23;2.40;;;1.90;99.90;;;;;;4987151;28;20499;-89
2020/12/07 00:39:45;;;;;;;3.00;2.53;;;1.80;99.90;;;;;;4983336;28;20492;-90
2020/12/07 00:42:12;;;;;;;2.97;2.60;;;1.80;99.90;;;;;;4980499;28;20450;-89
2020/12/07 00:44:40;;;;;;;4.10;2.17;;;2.00;99.90;;;;;;4974485;28;20450;-90
2020/12/07 00:47:07;;;;;;;3.43;2.80;;;1.80;99.90;;;;;;4974491;28;20458;-90
2020/12/07 00:49:34;;;;;;;2.40;2.03;;;1.80;99.90;;;;;;4973401;28;20453;-89
2020/12/07 00:52:01;;;;;;;4.13;2.70;;;2.00;99.90;;;;;;4974183;28;20453;-88
2020/12/07 00:54:28;;;;;;;3.20;2.80;;;1.90;99.90;;;;;;4981860;28;20870;-90
2020/12/07 00:56:55;;;;;;;2.17;1.80;;;1.80;99.90;;;;;;4984835;28;20575;-89
2020/12/07 00:59:22;;;;;;;2.60;2.30;;;1.90;99.90;;;;;;4981751;28;20475;-90
2020/12/07 01:01:49;;;;;;;2.40;1.90;;;2.00;99.90;;;;;;4979097;28;20884;-88
2020/12/07 01:04:16;;;;;;;2.33;2.13;;;1.90;99.90;;;;;;4978174;28;20453;-90
2020/12/07 01:06:45;;;;;;;3.10;2.30;;;1.90;99.90;;;;;;4974487;28;20458;-88
2020/12/07 01:09:11;;;;;;;2.70;2.10;;;1.90;99.90;;;;;;4982657;28;20814;-89
2020/12/07 01:11:38;;;;;;;4.20;2.10;;;1.80;99.90;;;;;;4987542;28;20473;-87
2020/12/07 01:14:04;;;;;;;3.03;2.47;;;1.90;99.90;;;;;;4987087;28;20507;-89
2020/12/07 01:16:32;;;;;;;2.83;1.90;;;1.80;99.90;;;;;;4979860;28;20495;-90
2020/12/07 01:18:58;;;;;;;2.70;2.17;;;1.80;99.90;;;;;;4982563;28;20450;-89
2020/12/07 01:21:24;;;;;;;3.30;2.43;;;1.80;99.90;;;;;;4983772;28;20468;-88
2020/12/07 01:23:51;;;;;;;2.50;1.37;;;1.80;99.90;;;;;;4983070;28;20482;-88
2020/12/07 01:26:17;;;;;;;3.40;2.53;;;1.60;99.90;;;;;;4981640;28;20792;-89
2020/12/07 01:28:49;;;;;;;6.00;2.00;;;1.80;99.90;;;;;;4981682;28;20445;-89
2020/12/07 01:31:17;;;;;;;1.90;1.33;;;1.80;99.90;;;;;;4984719;28;20471;-91
2020/12/07 01:33:51;;;;;;;3.47;2.60;;;1.80;99.90;;;;;;4988026;28;20482;-90
2020/12/07 01:36:18;;;;;;;6.73;2.20;;;2.30;99.90;;;;;;4986431;28;20489;-88
2020/12/07 01:38:44;;;;;;;2.23;1.30;;;1.40;99.90;;;;;;4984565;28;20792;-88
2020/12/07 01:41:11;;;;;;;1.33;1.17;;;1.80;99.90;;;;;;4982241;28;20940;-90
2020/12/07 01:43:37;;;;;;;2.50;1.67;;;;;;;;;;4984987;28;20449;-87
2020/12/07 01:46:08;;;;;;;2.73;2.33;;;1.90;99.90;;;;;;4996900;28;20438;-90
2020/12/07 01:48:36;;;;;;;2.90;2.20;;;2.20;99.90;;;;;;4997050;28;20461;-87
2020/12/07 01:51:04;;;;;;;2.40;2.20;;;1.80;99.90;;;;;;4995758;28;20449;-87
2020/12/07 01:53:32;;;;;;;3.00;2.70;;;1.80;99.90;;;;;;4996907;28;20949;-90
2020/12/07 01:56:01;;;;;;;2.20;2.00;;;1.70;99.90;;;;;;4996543;28;20451;-91
2020/12/07 01:58:27;;;;;;;2.87;2.33;;;1.80;99.90;;;;;;4996079;28;20494;-88
2020/12/07 02:00:53;;;;;;;1.23;0.60;;;1.70;99.90;;;;;;4994311;28;20519;-87
2020/12/07 02:03:21;;;;;;;1.77;1.40;;;1.80;99.90;;;;;;4996203;28;20521;-89
2020/12/07 02:05:47;;;;;;;2.80;2.50;;;1.70;99.90;;;;;;4995655;28;20460;-89
2020/12/07 02:08:16;;;;;;;1.03;0.93;;;1.70;99.90;;;;;;4996619;28;20544;-87
2020/12/07 02:10:43;;;;;;;2.20;1.93;;;;;;;;;;4996312;28;20493;-89
2020/12/07 02:13:10;;;;;;;4.77;3.33;;;1.60;99.90;;;;;;4998825;28;20456;-88
2020/12/07 02:15:37;;;;;;;4.30;3.17;;;1.80;99.90;;;;;;4996420;28;20462;-89
2020/12/07 02:18:08;;;;;;;4.80;3.40;;;1.70;99.90;;;;;;4996175;28;20494;-89
2020/12/07 02:20:35;;;;;;;2.03;1.83;;;1.70;99.90;;;;;;4993920;28;20449;-89
2020/12/07 02:23:02;;;;;;;1.93;1.27;;;1.80;99.90;;;;;;4996022;28;20484;-89
2020/12/07 02:25:29;;;;;;;3.90;3.20;;;1.70;99.90;;;;;;4994838;28;20927;-90
2020/12/07 02:27:56;;;;;;;1.43;1.20;;;1.80;99.90;;;;;;4995888;28;20449;-89
2020/12/07 02:30:23;;;;;;;2.83;2.23;;;1.70;99.90;;;;;;4994633;28;20451;-90
2020/12/07 02:32:51;;;;;;;3.90;3.00;;;1.80;99.90;;;;;;4996019;28;20464;-88
2020/12/07 02:35:18;;;;;;;3.80;3.17;;;1.80;99.90;;;;;;4994839;28;20476;-90
2020/12/07 02:37:47;;;;;;;3.30;3.00;;;1.80;99.90;;;;;;4996118;28;20876;-89
2020/12/07 02:40:14;;;;;;;2.47;2.27;;;1.70;99.90;;;;;;4996202;28;20551;-89
2020/12/07 02:42:42;;;;;;;4.17;3.10;;;1.80;99.90;;;;;;4996966;28;20457;-87
2020/12/07 02:45:10;;;;;;;4.80;3.30;;;1.80;99.90;;;;;;5006966;28;20514;-87
2020/12/07 02:47:36;;;;;;;4.17;3.10;;;1.80;99.90;;;;;;5001546;28;20450;-88
2020/12/07 02:50:05;;;;;;;4.10;3.43;;;1.80;99.90;;;;;;4995689;28;20449;-89
2020/12/07 02:52:31;;;;;;;3.60;2.00;;;1.80;99.90;;;;;;4996540;28;20491;-89
2020/12/07 02:55:00;;;;;;;3.40;2.67;;;1.70;99.90;;;;;;4996105;28;20457;-88
2020/12/07 02:57:26;;;;;;;2.40;2.07;;;1.70;99.90;;;;;;4995600;28;20543;-88
2020/12/07 02:59:53;;;;;;;3.20;2.77;;;1.70;99.90;;;;;;4996050;28;20458;-89
2020/12/07 03:02:20;;;;;;;3.33;2.17;;;1.70;99.90;;;;;;4995795;28;20504;-86
2020/12/07 03:04:46;;;;;;;3.27;2.90;;;1.70;99.90;;;;;;4994958;28;20443;-88
2020/12/07 03:07:13;;;;;;;0.63;0.63;;;1.70;99.90;;;;;;4995743;28;20465;-88
2020/12/07 03:09:40;;;;;;;4.60;3.17;;;1.70;99.90;;;;;;4995664;28;20452;-89
2020/12/07 03:12:07;;;;;;;5.07;3.30;;;1.70;99.90;;;;;;4995636;28;20450;-89
2020/12/07 03:14:34;;;;;;;3.47;2.70;;;1.70;99.90;;;;;;4995588;28;20448;-88
2020/12/07 03:17:00;;;;;;;4.73;3.27;;;1.80;99.90;;;;;;4993985;28;20498;-90
2020/12/07 03:19:27;;;;;;;3.13;2.57;;;1.70;99.90;;;;;;4994555;28;20451;-89
2020/12/07 03:21:54;;;;;;;4.30;3.73;;;1.40;99.90;;;;;;4995046;28;20456;-89
2020/12/07 03:24:21;;;;;;;5.50;3.23;;;1.80;99.90;;;;;;4995302;28;20499;-88
2020/12/07 03:26:47;;;;;;;4.30;2.90;;;1.70;99.90;;;;;;4995284;28;20475;-88
2020/12/07 03:29:14;;;;;;;5.23;2.60;;;1.70;99.90;;;;;;4995203;28;20809;-89
2020/12/07 03:31:41;;;;;;;5.17;3.77;;;1.70;99.90;;;;;;4995241;28;20444;-89
2020/12/07 03:34:09;;;;;;;3.53;2.90;;;1.70;99.90;;;;;;4994677;28;20453;-87
2020/12/07 03:36:35;;;;;;;5.10;3.30;;;1.70;99.90;;;;;;4993766;28;20483;-90
2020/12/07 03:39:02;;;;;;;3.27;1.47;;;1.60;99.90;;;;;;4991304;28;20457;-89
2020/12/07 03:41:29;;;;;;;1.83;1.23;;;1.60;99.90;;;;;;4995257;28;20818;-89
2020/12/07 03:43:55;;;;;;;2.90;2.27;;;1.60;99.90;;;;;;4994588;28;20456;-89
2020/12/07 03:46:22;;;;;;;4.13;2.80;;;1.60;99.90;;;;;;4995216;28;20453;-87
2020/12/07 03:48:48;;;;;;;2.30;2.10;;;1.60;99.90;;;;;;4994909;28;20439;-88
2020/12/07 03:51:15;;;;;;;1.33;1.20;;;1.60;99.90;;;;;;4990020;28;20937;-89
2020/12/07 03:53:42;;;;;;;5.20;3.40;;;1.60;99.90;;;;;;4994367;28;20446;-89
2020/12/07 03:56:09;;;;;;;3.60;2.50;;;1.60;99.90;;;;;;4991046;28;20956;-89
2020/12/07 03:58:35;;;;;;;4.20;3.20;;;1.60;99.90;;;;;;4993360;28;21044;-89
2020/12/07 04:01:03;;;;;;;2.53;1.40;;;1.60;99.90;;;;;;4993156;28;20474;-89
2020/12/07 04:03:30;;;;;;;3.60;3.30;;;1.70;99.90;;;;;;4994729;28;20456;-89
2020/12/07 04:06:01;;;;;;;4.50;3.20;;;1.70;99.90;;;;;;4993754;28;20458;-89
2020/12/07 04:08:28;;;;;;;1.77;1.67;;;1.70;99.90;;;;;;4993401;28;20460;-89
2020/12/07 04:10:54;;;;;;;3.20;1.37;;;1.70;99.90;;;;;;4994800;28;20511;-88
2020/12/07 04:13:21;;;;;;;3.73;2.80;;;1.80;99.90;;;;;;4994540;28;20454;-90
2020/12/07 04:15:48;;;;;;;6.40;2.80;;;;;;;;;;4994551;28;20448;-89
2020/12/07 04:18:14;;;;;;;3.00;1.83;;;1.90;99.90;;;;;;4997875;28;20497;-87
2020/12/07 04:20:42;;;;;;;10.30;1.80;;;1.90;99.90;;;;;;4993725;28;20455;-88
2020/12/07 04:23:08;;;;;;;3.70;2.87;;;1.90;99.90;;;;;;4992823;28;20477;-87
2020/12/07 04:25:34;;;;;;;3.57;2.20;;;1.90;99.90;;;;;;4994323;28;20450;-89
2020/12/07 04:28:01;;;;;;;3.50;3.20;;;;;;;;;;4993039;28;20444;-89
2020/12/07 04:30:27;;;;;;;2.70;2.17;;;1.90;99.90;;;;;;4997062;28;20825;-89
2020/12/07 04:32:53;;;;;;;6.03;2.40;;;1.90;99.90;;;;;;4998238;28;20456;-89
2020/12/07 04:35:20;;;;;;;3.93;3.17;;;1.90;99.90;;;;;;4994640;28;20453;-88
2020/12/07 04:37:47;;;;;;;3.00;2.60;;;1.90;99.90;;;;;;4991593;28;20487;-90
2020/12/07 04:40:14;;;;;;;4.40;2.80;;;1.90;99.90;;;;;;4994424;28;20453;-88
2020/12/07 04:42:41;;;;;;;1.67;1.53;;;1.90;99.90;;;;;;4994047;28;20468;-88
2020/12/07 04:45:08;;;;;;;3.83;3.07;;;1.90;99.90;;;;;;4993959;28;20444;-89
2020/12/07 04:47:34;;;;;;;3.40;2.83;;;1.90;99.90;;;;;;4992794;28;20484;-90
2020/12/07 04:50:04;;;;;;;2.80;2.50;;;1.90;99.90;;;;;;4993503;28;20455;-88
2020/12/07 04:52:32;;;;;;;5.30;3.10;;;1.90;99.90;;;;;;4994016;28;20954;-88
2020/12/07 04:55:01;;;;;;;4.43;2.80;;;1.90;99.90;;;;;;4994473;28;20526;-90
2020/12/07 04:57:29;;;;;;;3.87;3.00;;;2.00;99.90;;;;;;4994198;28;20495;-88
2020/12/07 04:59:56;;;;;;;3.83;3.23;;;2.00;99.90;;;;;;4994086;28;20452;-86
2020/12/07 05:02:22;;;;;;;5.20;3.30;;;1.90;99.90;;;;;;5010078;28;20445;-88
2020/12/07 05:04:49;;;;;;;9.20;3.70;;;2.00;99.90;;;;;;4999441;28;20451;-90
2020/12/07 05:07:15;;;;;;;9.30;4.00;;;2.00;99.90;;;;;;4998303;28;20471;-89
2020/12/07 05:09:42;;;;;;;5.80;3.00;;;2.00;99.90;;;;;;4996722;28;20448;-89
2020/12/07 05:12:15;;;;;;;7.60;4.20;;;2.00;99.90;;;;;;4997966;28;20449;-89
2020/12/07 05:14:41;;;;;;;6.87;2.27;;;2.00;99.90;;;;;;4997808;28;20813;-89
2020/12/07 05:17:08;;;;;;;5.03;2.90;;;2.10;99.90;;;;;;4997855;28;21069;-89
2020/12/07 05:19:34;;;;;;;3.03;2.30;;;2.00;99.90;;;;;;4995569;28;20456;-88
2020/12/07 05:22:00;;;;;;;2.57;1.87;;;2.10;99.90;;;;;;4997857;28;20456;-90
2020/12/07 05:24:26;;;;;;;4.03;3.60;;;2.10;99.90;;;;;;4997746;28;20836;-90
2020/12/07 05:26:54;;;;;;;4.87;3.80;;;2.10;99.90;;;;;;4997810;28;20804;-90
2020/12/07 05:29:33;;;;;;;9.63;3.70;;;2.10;99.90;;;;;;4997587;28;20461;-89
2020/12/07 05:31:59;;;;;;;8.17;3.53;;;2.00;99.90;;;;;;4997106;28;20456;-89
2020/12/07 05:34:26;;;;;;;4.43;3.27;;;2.00;99.90;;;;;;4996694;28;20462;-89
2020/12/07 05:36:56;;;;;;;4.93;3.40;;;2.00;99.90;;;;;;4996170;28;20491;-88
2020/12/07 05:39:25;;;;;;;15.40;7.83;;;2.10;99.90;;;;;;4997694;28;20461;-90
2020/12/07 05:41:53;;;;;;;5.80;4.23;;;2.10;99.90;;;;;;4997414;28;20464;-91
2020/12/07 05:44:21;;;;;;;4.60;3.40;;;2.10;99.90;;;;;;4997093;28;20457;-89
2020/12/07 05:46:53;;;;;;;4.00;2.47;;;2.20;99.90;;;;;;4996940;28;20457;-89
2020/12/07 05:49:19;;;;;;;6.17;3.90;;;2.10;99.90;;;;;;4996624;28;20447;-89
2020/12/07 05:51:55;;;;;;;5.20;2.73;;;2.10;99.90;;;;;;4995697;28;20452;-89
2020/12/07 05:54:24;;;;;;;3.57;2.27;;;2.70;99.90;;;;;;4991480;28;20461;-88
2020/12/07 05:56:57;;;;;;;4.40;3.33;;;2.10;99.90;;;;;;4992211;28;20536;-87
2020/12/07 05:59:30;;;;;;;4.47;3.17;;;2.10;99.90;;;;;;4983165;28;20451;-89
2020/12/07 06:02:00;;;;;;;6.00;4.03;;;2.10;99.90;;;;;;4981861;28;20456;-88
2020/12/07 06:04:31;;;;;;;6.87;5.43;;;2.00;99.90;;;;;;4984432;28;20456;-90
2020/12/07 06:07:01;;;;;;;5.33;4.20;;;2.00;99.90;;;;;;4983115;28;20514;-90
2020/12/07 06:09:30;;;;;;;5.50;4.27;;;2.00;99.90;;;;;;4981410;28;20913;-90
2020/12/07 06:12:01;;;;;;;5.93;4.07;;;2.00;99.90;;;;;;4980611;28;20446;-91
2020/12/07 06:14:28;;;;;;;8.90;3.77;;;2.00;99.90;;;;;;4977270;28;20451;-89
2020/12/07 06:16:54;;;;;;;7.97;4.20;;;2.00;99.90;;;;;;4976191;28;20497;-90
2020/12/07 06:19:21;;;;;;;6.37;4.60;;;2.00;99.90;;;;;;4976676;28;20808;-90
2020/12/07 06:21:54;;;;;;;12.13;5.73;;;2.00;99.90;;;;;;4976007;28;20461;-88
2020/12/07 06:24:21;;;;;;;6.63;4.50;;;2.00;99.90;;;;;;4976935;28;20486;-89
2020/12/07 06:27:01;;;;;;;30.17;25.80;;;1.90;99.90;;;;;;4977126;28;20465;-88
2020/12/07 06:29:27;;;;;;;26.87;19.40;;;1.90;99.90;;;;;;4976963;28;20450;-90
2020/12/07 06:31:55;;;;;;;9.93;6.50;;;1.90;99.90;;;;;;4977034;28;20445;-88
2020/12/07 06:34:23;;;;;;;9.27;6.10;;;1.90;99.90;;;;;;4976287;28;20457;-90
2020/12/07 06:36:50;;;;;;;15.13;11.17;;;1.90;99.90;;;;;;4976730;28;20544;-89
2020/12/07 06:39:16;;;;;;;8.03;6.30;;;1.90;99.90;;;;;;4976599;28;20452;-91
2020/12/07 06:41:44;;;;;;;10.13;7.73;;;1.80;99.90;;;;;;4976720;28;20454;-89
2020/12/07 06:44:12;;;;;;;10.10;7.17;;;1.80;99.90;;;;;;4976733;28;20457;-92
2020/12/07 06:46:56;;;;;;;10.87;6.10;;;1.80;99.90;;;;;;4977166;28;20449;-90
2020/12/07 06:49:38;;;;;;;6.80;4.60;;;1.80;99.90;;;;;;4975934;28;20477;-90
2020/12/07 06:52:10;;;;;;;6.70;5.03;;;1.70;99.90;;;;;;4976873;28;20556;-91
2020/12/07 06:57:27;;;;;;;8.03;5.50;;;1.70;99.90;;;;;;4976250;28;20992;-88
2020/12/07 07:00:05;;;;;;;8.60;5.80;;;1.70;99.90;;;;;;4976084;28;20468;-87
2020/12/07 07:02:31;;;;;;;11.10;6.93;;;1.70;99.90;;;;;;4976016;28;20819;-88
2020/12/07 07:05:00;;;;;;;7.00;4.97;;;1.70;99.90;;;;;;4974725;28;20465;-88
2020/12/07 07:07:29;;;;;;;6.40;5.00;;;1.70;99.90;;;;;;4975840;28;20497;-90
2020/12/07 07:09:56;;;;;;;8.30;4.87;;;1.60;99.90;;;;;;4975899;28;20460;-86
2020/12/07 07:12:23;;;;;;;10.13;6.67;;;1.70;99.90;;;;;;4975921;28;20443;-85
2020/12/07 07:14:52;;;;;;;7.67;4.80;;;1.70;99.90;;;;;;4975712;28;20449;-87
2020/12/07 07:17:19;;;;;;;10.93;7.33;;;1.70;99.90;;;;;;4977588;28;20503;-89
2020/12/07 07:19:46;;;;;;;13.23;8.37;;;1.70;99.90;;;;;;4978329;28;20452;-87
2020/12/07 07:22:14;;;;;;;17.13;12.33;;;1.70;99.90;;;;;;4975447;28;20461;-86
2020/12/07 07:25:09;;;;;;;19.60;14.70;;;1.80;99.90;;;;;;4973598;28;20458;-88
2020/12/07 07:30:19;;;;;;;8.60;7.43;;;1.80;99.90;;;;;;4975204;28;20445;-87
2020/12/07 07:32:48;;;;;;;10.73;6.43;;;1.90;99.90;;;;;;4975709;28;20819;-89
2020/12/07 07:35:15;;;;;;;8.30;6.20;;;1.80;99.90;;;;;;4974395;28;20546;-87
2020/12/07 07:37:43;;;;;;;7.40;5.40;;;1.90;99.90;;;;;;4975133;28;20499;-87
2020/12/07 07:40:12;;;;;;;6.47;5.00;;;1.90;99.90;;;;;;4975489;28;20461;-89
2020/12/07 07:42:42;;;;;;;6.53;5.37;;;1.90;99.90;;;;;;4975522;28;20465;-88
2020/12/07 07:45:09;;;;;;;41.13;20.93;;;1.90;99.90;;;;;;4975254;28;20450;-86
2020/12/07 07:47:42;;;;;;;40.97;36.47;;;1.90;99.90;;;;;;4975373;28;20464;-86
2020/12/07 08:15:41;;;;;;;6.30;5.00;;;3.10;99.90;;;;;;4955294;29;20483;-85
2020/12/07 08:18:08;;;;;;;6.17;4.73;;;3.60;99.90;;;;;;4943476;28;20504;-85
2020/12/07 08:20:36;;;;;;;5.40;4.60;;;3.90;99.90;;;;;;4953835;29;20449;-89
2020/12/07 08:23:05;;;;;;;4.50;4.10;;;4.10;99.90;;;;;;4954972;29;20500;-88
2020/12/07 08:25:50;;;;;;;4.20;3.77;;;4.30;99.90;;;;;;4955238;28;20545;-86
2020/12/07 08:28:18;;;;;;;4.43;4.00;;;4.90;99.90;;;;;;4955216;29;20460;-89
2020/12/07 08:31:04;;;;;;;4.10;3.80;;;5.30;99.90;;;;;;4955278;29;20475;-86
2020/12/07 08:33:31;;;;;;;3.83;3.27;;;5.90;99.90;;;;;;4955086;28;20925;-89
2020/12/07 08:35:58;;;;;;;3.90;3.60;;;5.60;99.90;;;;;;4953905;29;20451;-85
2020/12/07 08:38:29;;;;;;;3.70;3.40;;;6.30;99.90;;;;;;4955048;28;20877;-86
2020/12/07 08:41:13;;;;;;;4.07;3.67;;;6.20;99.90;;;;;;4954615;29;20453;-87
2020/12/07 08:43:44;;;;;;;4.33;3.93;;;6.30;99.90;;;;;;4980708;28;20449;-89
2020/12/07 08:46:12;;;;;;;3.83;3.50;;;6.20;99.90;;;;;;4979530;28;20453;-89
2020/12/07 08:48:39;;;;;;;4.37;3.80;;;6.40;99.90;;;;;;4983835;28;20520;-91
2020/12/07 08:51:05;;;;;;;3.43;3.13;;;6.70;99.90;;;;;;4978624;28;20445;-87
2020/12/07 08:53:32;;;;;;;3.37;3.07;;;5.80;99.90;;;;;;4974486;28;20805;-91
2020/12/07 08:55:58;;;;;;;5.40;3.50;;;6.40;99.90;;;;;;4974887;28;20462;-90
2020/12/07 08:58:25;;;;;;;3.63;3.30;;;7.00;99.90;;;;;;4974563;28;20497;-87
2020/12/07 09:00:52;;;;;;;4.53;3.50;;;;;;;;;;4974097;28;20458;-93
2020/12/07 09:03:19;;;;;;;3.40;3.10;;;;;;;;;;4974828;28;20490;-93
2020/12/07 09:05:45;;;;;;;4.63;3.30;;;;;;;;;;4973420;28;20543;-86
2020/12/07 09:08:12;;;;;;;3.43;3.13;;;7.20;99.90;;;;;;4975050;28;20964;-92
2020/12/07 09:10:39;;;;;;;4.63;3.40;;;;;;;;;;4974872;28;20444;-91
2020/12/07 09:13:05;;;;;;;3.20;2.90;;;7.70;99.90;;;;;;4974566;28;20454;-90
2020/12/07 09:15:33;;;;;;;3.63;3.17;;;7.80;99.90;;;;;;4956169;28;20447;-91
2020/12/07 09:17:59;;;;;;;2.93;2.60;;;;;;;;;;4973945;28;20497;-91
2020/12/07 09:20:26;;;;;;;3.07;2.87;;;;;;;;;;4973639;28;20452;-88
2020/12/07 09:22:53;;;;;;;3.27;2.97;;;;;;;;;;4974377;28;20499;-90
2020/12/07 09:25:19;;;;;;;3.10;2.73;;;8.60;99.90;;;;;;4974216;28;20457;-90
2020/12/07 09:27:45;;;;;;;3.10;2.80;;;8.10;99.90;;;;;;4975283;28;20454;-88
2020/12/07 09:30:12;;;;;;;3.27;2.57;;;;;;;;;;4973575;28;20468;-87
2020/12/07 09:32:39;;;;;;;4.43;2.83;;;7.50;99.90;;;;;;4973889;28;20454;-87
2020/12/07 09:35:08;;;;;;;3.57;2.97;;;7.80;99.90;;;;;;4972565;28;20439;-88
2020/12/07 09:37:35;;;;;;;4.13;2.73;;;;;;;;;;4973879;28;20892;-88
2020/12/07 09:40:01;;;;;;;2.50;2.30;;;;;;;;;;4974082;28;20454;-85
2020/12/07 09:42:28;;;;;;;2.83;2.53;;;;;;;;;;4974271;28;20453;-93
2020/12/07 09:44:54;;;;;;;2.90;2.60;;;;;;;;;;4974194;28;20451;-88
2020/12/07 09:47:21;;;;;;;2.70;2.50;;;;;;;;;;4958724;28;20462;-89
2020/12/07 09:49:48;;;;;;;3.50;2.40;;;7.50;99.90;;;;;;4953180;29;20521;-88
2020/12/07 09:52:15;;;;;;;2.40;2.20;;;7.30;99.90;;;;;;4952746;28;20822;-88
2020/12/07 09:54:46;;;;;;;2.87;2.57;;;7.70;99.90;;;;;;4958016;29;20448;-88
2020/12/07 09:57:12;;;;;;;2.60;2.27;;;6.90;99.90;;;;;;4957595;29;20544;-88
2020/12/07 09:59:39;;;;;;;2.83;2.63;;;;;;;;;;4967040;28;20461;-90
2020/12/07 10:02:06;;;;;;;2.97;2.67;;;;;;;;;;4988556;28;20533;-90
2020/12/07 10:04:33;;;;;;;6.10;4.90;;;;;;;;;;4983787;28;20448;-89
2020/12/07 10:07:00;;;;;;;4.57;3.57;;;7.20;99.90;;;;;;4984730;28;20458;-88
2020/12/07 10:09:26;;;;;;;4.33;3.70;;;7.40;99.90;;;;;;4990027;28;20438;-88
2020/12/07 10:11:53;;;;;;;2.80;2.60;;;;;;;;;;4984144;28;20458;-89
2020/12/07 10:14:19;;;;;;;2.83;2.63;;;6.30;99.90;;;;;;4988124;28;20452;-92
2020/12/07 10:16:45;;;;;;;2.80;2.60;;;7.10;99.90;;;;;;4982648;28;20449;-90
2020/12/07 10:19:14;;;;;;;3.10;2.67;;;7.70;99.90;;;;;;4976234;28;20501;-89
2020/12/07 10:21:41;;;;;;;6.17;3.60;;;6.50;99.90;;;;;;4970938;28;20453;-88
2020/12/07 10:24:08;;;;;;;3.80;3.50;;;7.50;99.90;;;;;;4985265;28;20477;-88
2020/12/07 10:26:34;;;;;;;2.47;2.27;;;;;;;;;;4983703;28;20450;-87
2020/12/07 10:29:01;;;;;;;3.27;2.97;;;6.90;99.90;;;;;;4977129;28;20462;-91
2020/12/07 10:31:28;;;;;;;3.43;2.67;;;;;;;;;;4976428;28;20442;-89
2020/12/07 10:33:54;;;;;;;3.20;2.90;;;7.10;99.90;;;;;;4979112;28;20451;-91
2020/12/07 10:36:24;;;;;;;3.43;2.70;;;;;;;;;;4984736;28;20442;-84
2020/12/07 10:38:53;;;;;;;2.90;2.60;;;7.50;99.90;;;;;;4984689;28;20494;-83
2020/12/07 10:41:27;;;;;;;3.90;3.53;;;7.80;99.90;;;;;;4981957;28;20828;-86
2020/12/07 10:43:53;;;;;;;3.60;3.30;;;8.00;99.90;;;;;;4924128;29;20462;-87
2020/12/07 10:46:23;;;;;;;2.40;2.20;;;7.70;99.90;;;;;;4926209;29;20449;-85
2020/12/07 10:48:52;;;;;;;3.27;2.97;;;7.50;99.90;;;;;;4923858;29;20490;-85
2020/12/07 10:51:22;;;;;;;2.93;2.73;;;;;;;;;;4920760;29;20978;-87
2020/12/07 10:53:48;;;;;;;3.43;3.13;;;;;;;;;;4926635;29;20445;-86
2020/12/07 10:56:15;;;;;;;3.67;2.90;;;;;;;;;;4924842;29;20813;-86
2020/12/07 10:58:43;;;;;;;3.30;2.70;;;6.90;99.90;;;;;;4924152;29;20500;-85
2020/12/07 11:01:10;;;;;;;8.67;6.73;;;5.90;99.90;;;;;;4934520;28;20463;-86
2020/12/07 11:03:36;;;;;;;3.90;3.40;;;;;;;;;;4985441;28;20453;-87
2020/12/07 11:06:12;;;;;;;4.57;3.77;;;5.50;99.90;;;;;;4983882;28;20480;-86
2020/12/07 11:08:47;;;;;;;8.83;4.90;;;5.40;99.90;;;;;;4982469;28;20456;-87
2020/12/07 11:11:14;;;;;;;4.97;4.47;;;;;;;;;;4980898;28;20968;-86
2020/12/07 11:13:40;;;;;;;5.57;4.80;;;;;;;;;;4984953;28;20461;-87
2020/12/07 11:16:12;;;;;;;4.23;3.63;;;5.30;99.90;;;;;;4985408;28;20445;-86
2020/12/07 11:18:39;;;;;;;6.57;5.03;;;;;;;;;;4955977;29;20491;-87
2020/12/07 11:21:10;;;;;;;12.60;9.67;;;5.10;99.90;;;;;;4954920;29;20451;-88
2020/12/07 11:23:37;;;;;;;5.40;4.07;;;5.00;99.90;;;;;;4968632;28;20485;-84
2020/12/07 11:26:06;;;;;;;4.70;4.10;;;4.60;99.90;;;;;;4975543;28;20450;-89
2020/12/07 11:28:32;;;;;;;5.37;4.43;;;5.00;99.90;;;;;;4975483;28;20939;-86
2020/12/07 11:30:59;;;;;;;3.63;3.33;;;;;;;;;;4975262;28;20950;-86
2020/12/07 11:33:26;;;;;;;3.93;3.13;;;5.30;99.90;;;;;;4975105;28;20443;-84
2020/12/07 11:35:53;;;;;;;3.93;3.27;;;;;;;;;;4973861;28;20454;-85
2020/12/07 11:38:22;;;;;;;5.47;3.93;;;4.80;99.90;;;;;;4974938;28;20503;-84
2020/12/07 11:40:56;;;;;;;6.00;4.87;;;;;;;;;;4974876;28;20462;-83
2020/12/07 11:43:34;;;;;;;3.60;3.30;;;5.10;99.90;;;;;;4974955;28;20475;-85
2020/12/07 11:46:01;;;;;;;3.57;3.27;;;;;;;;;;4975029;28;20443;-82
2020/12/07 11:48:28;;;;;;;5.60;4.57;;;4.80;99.90;;;;;;4974762;28;20447;-82
2020/12/07 11:50:54;;;;;;;4.27;3.87;;;;;;;;;;4973508;28;20439;-85
2020/12/07 11:53:21;;;;;;;5.20;3.40;;;;;;;;;;4974344;28;20851;-84
2020/12/07 11:55:47;;;;;;;3.50;2.80;;;;;;;;;;4974617;28;20461;-85
2020/12/07 11:58:14;;;;;;;2.80;2.60;;;;;;;;;;4974399;28;20509;-84
2020/12/07 12:00:41;;;;;;;2.93;2.50;;;;;;;;;;4974200;28;20480;-84
2020/12/07 12:03:07;;;;;;;3.50;3.20;;;;;;;;;;4974562;28;20454;-84
2020/12/07 12:05:34;;;;;;;0.70;0.53;;;4.20;99.90;;;;;;4973463;28;20815;-81
2020/12/07 12:08:01;;;;;;;3.73;2.63;;;;;;;;;;4971495;28;20457;-85
2020/12/07 12:10:28;;;;;;;3.47;2.40;;;;;;;;;;4974448;28;20453;-85
2020/12/07 12:12:54;;;;;;;3.00;2.70;;;;;;;;;;4974799;28;20447;-84
2020/12/07 12:15:21;;;;;;;2.60;2.40;;;;;;;;;;4974269;28;20449;-87
2020/12/07 12:17:47;;;;;;;3.57;2.73;;;;;;;;;;4974756;28;20495;-87
2020/12/07 12:20:14;;;;;;;2.73;2.50;;;;;;;;;;4973302;28;20461;-85
2020/12/07 12:22:41;;;;;;;3.13;2.83;;;4.10;99.90;;;;;;4974286;28;20492;-84
2020/12/07 12:25:07;;;;;;;3.57;3.10;;;;;;;;;;4974384;28;20965;-83
2020/12/07 12:27:34;;;;;;;3.63;3.20;;;;;;;;;;4974253;28;20979;-85
2020/12/07 12:30:01;;;;;;;3.80;3.40;;;;;;;;;;4975521;28;20453;-85
2020/12/07 12:32:27;;;;;;;4.63;3.13;;;;;;;;;;4974319;28;20453;-86
2020/12/07 12:34:54;;;;;;;3.67;3.30;;;;;;;;;;4973306;28;20449;-88
2020/12/07 12:37:20;;;;;;;5.43;3.90;;;;;;;;;;4974306;28;20454;-85
2020/12/07 12:39:47;;;;;;;4.30;3.50;;;4.10;99.90;;;;;;4972120;28;20552;-86
2020/12/07 12:42:14;;;;;;;6.70;4.90;;;;;;;;;;4973841;28;20450;-86
2020/12/07 12:44:40;;;;;;;5.93;4.83;;;;;;;;;;4974163;28;21132;-86
2020/12/07 12:47:07;;;;;;;4.70;4.20;;;4.00;99.90;;;;;;4974067;28;20467;-86
2020/12/07 12:49:33;;;;;;;10.47;6.60;;;;;;;;;;4973017;28;20461;-87
2020/12/07 12:51:59;;;;;;;4.87;4.33;;;4.10;99.90;;;;;;4974076;28;20449;-86
2020/12/07 12:54:26;;;;;;;8.30;7.50;;;;;;;;;;4974182;28;20483;-86
2020/12/07 12:56:53;;;;;;;4.70;3.93;;;3.90;99.90;;;;;;4973963;28;20445;-87
2020/12/07 12:59:20;;;;;;;17.87;13.33;;;;;;;;;;4973593;28;20551;-88
2020/12/07 13:01:46;;;;;;;4.40;3.90;;;3.70;99.90;;;;;;4976546;28;20807;-86
2020/12/07 13:04:12;;;;;;;5.77;5.07;;;;;;;;;;4982723;28;20966;-92
2020/12/07 13:06:39;;;;;;;4.43;3.97;;;;;;;;;;4975151;28;20449;-90
2020/12/07 13:09:05;;;;;;;6.90;4.47;;;4.10;99.90;;;;;;4974319;28;20461;-87
2020/12/07 13:11:34;;;;;;;7.60;4.10;;;;;;;;;;4978895;28;20440;-88
2020/12/07 13:14:02;;;;;;;3.90;3.50;;;4.10;99.90;;;;;;4975111;28;20451;-88
2020/12/07 13:16:35;;;;;;;4.20;3.57;;;4.40;99.90;;;;;;4982605;28;20430;-87
2020/12/07 13:19:02;;;;;;;3.40;2.67;;;4.10;99.90;;;;;;4979680;28;20549;-86
2020/12/07 13:21:32;;;;;;;3.63;3.20;;;;;;;;;;4981854;28;20450;-87
2020/12/07 13:24:05;;;;;;;3.80;3.10;;;;;;;;;;4983375;28;20539;-86
2020/12/07 13:26:41;;;;;;;4.20;3.80;;;4.20;99.90;;;;;;4980091;28;20444;-87
2020/12/07 13:29:09;;;;;;;6.83;3.43;;;4.10;99.90;;;;;;4977597;28;20461;-86
2020/12/07 13:31:39;;;;;;;6.20;5.20;;;4.00;99.90;;;;;;4975926;28;20449;-87
2020/12/07 13:34:06;;;;;;;3.60;3.30;;;;;;;;;;4977420;28;20455;-89
2020/12/07 13:36:32;;;;;;;4.30;3.60;;;;;;;;;;4976034;28;20450;-86
2020/12/07 13:38:59;;;;;;;3.70;3.10;;;;;;;;;;4977377;28;20843;-87
2020/12/07 13:41:26;;;;;;;3.70;3.20;;;;;;;;;;4977262;28;20455;-85
2020/12/07 13:43:53;;;;;;;4.00;3.20;;;4.30;99.90;;;;;;4975934;28;20940;-86
2020/12/07 13:46:20;;;;;;;5.40;2.70;;;3.70;99.90;;;;;;4958064;29;20451;-86
2020/12/07 13:48:47;;;;;;;3.10;2.77;;;;;;;;;;4957833;29;20805;-87
2020/12/07 13:51:18;;;;;;;5.50;4.40;;;;;;;;;;4956638;29;20467;-88